Kaltag, AK

10:00 AM AKDT on September 04, 2015 (GMT -0800)
Kaltag | | Change Station
CLOSE
Current Station
Airport
Location: Kaltag,
Elevation: 200 ft
Nearby Weather Stations

Elev 200 ft 64.32 °N, 158.74 °W | Updated 7 minutes ago

Light Rain
Light Rain
48 °F
Feels Like 48 °F
N
6
Wind Variable Wind from NNE

Today
High -- | Low -- °F
--% Chance of Precip.
Yesterday
High -- | Low -- °F
Precip. -- in
7:25 AM 9:40 PM
Waning Gibbous, 57% visible
Pressure 29.78 in
Visibility 5.0 miles
Clouds Overcast 1700 ft
Dew Point 43 °F
Humidity 83%
Rainfall 0.03 in
Snow Depth Not available.
UV 0 out of 12
Pollen Not available.
Air Quality Not available.
Flu Activity Not available.
METAR PAKV 041753Z AUTO 03005KT 5SM -RA OVC017 09/06 A2977 RMK AO2 SLP084 P0001 60003 T00890061 10100 20078 51009 TSNO
Pressure 29.78 in
Visibility 5.0 miles
Clouds Overcast 1700 ft
Dew Point 43 °F
Humidity 83%
Rainfall 0.03 in
Snow Depth Not available.
UV 0 out of 12
Pollen Not available.
Air Quality Not available.
Flu Activity Not available.
METAR PAKV 041753Z AUTO 03005KT 5SM -RA OVC017 09/06 A2977 RMK AO2 SLP084 P0001 60003 T00890061 10100 20078 51009 TSNO

10-Day Weather Forecast

×

Almanac

Astronomy

Sep. 04, 2015 Rise Set
Actual Time
Civil Twilight
Nautical Twilight
Astronomical Twilight
Moon
Length of Visible Light
Length of Day
Tomorrow will be .
, % of the Moon is Illuminated

Today's Extremes

State Highs State Lows

Community

WunderPhotos

Upload Photos

1,852,253 photos uploaded!

WunderBlogs® & News

Nearby

Air Quality

  Air Quality AQ Index Pollutant
Not available.

Snow Depth

Station Depth Elevation

Earthquake Activity

City Distance Mag. Time & Date
Minimum magnitude displayed is 2.5.

Coastal Water Temperatures

Place Temperature

Stations

Nearby Weather Stations

Station Location Temp. Windchill Dew Point Humidity Wind Precip. Elev Updated Type